createdAt,value
2024-04-10T00:01:45.573Z,100.00
2024-04-10T00:04:13.286Z,100.00
2024-04-10T00:06:40.608Z,100.00
2024-04-10T00:09:08.116Z,100.00
2024-04-10T00:11:35.538Z,100.00
2024-04-10T00:14:03.236Z,100.00
2024-04-10T00:16:30.970Z,100.00
2024-04-10T00:18:58.358Z,100.00
2024-04-10T00:21:25.771Z,100.00
2024-04-10T00:23:53.069Z,100.00
2024-04-10T00:26:20.528Z,100.00
2024-04-10T00:28:47.970Z,100.00
2024-04-10T00:31:15.235Z,100.00
2024-04-10T00:33:42.552Z,100.00
2024-04-10T00:36:12.296Z,100.00
2024-04-10T00:38:39.537Z,100.00
2024-04-10T00:41:07.344Z,100.00
2024-04-10T00:43:34.851Z,100.00
2024-04-10T00:46:15.910Z,100.00
2024-04-10T00:48:43.660Z,100.00
2024-04-10T00:51:12.335Z,100.00
2024-04-10T00:53:41.041Z,100.00
2024-04-10T00:56:09.837Z,100.00
2024-04-10T00:58:37.578Z,100.00
2024-04-10T01:01:05.673Z,100.00
2024-04-10T01:03:34.681Z,100.00
2024-04-10T01:06:03.816Z,100.00
2024-04-10T01:08:32.495Z,100.00
2024-04-10T01:11:00.635Z,100.00
2024-04-10T01:13:28.251Z,100.00
2024-04-10T01:15:56.988Z,100.00
2024-04-10T01:18:24.721Z,100.00
2024-04-10T01:20:52.068Z,100.00
2024-04-10T01:23:20.000Z,100.00
2024-04-10T01:25:47.765Z,100.00
2024-04-10T01:28:15.198Z,100.00
2024-04-10T01:30:42.469Z,100.00
2024-04-10T01:33:09.985Z,100.00
2024-04-10T01:35:37.338Z,100.00
2024-04-10T01:38:04.826Z,100.00
2024-04-10T01:40:32.192Z,100.00
2024-04-10T01:42:59.555Z,100.00
2024-04-10T01:45:26.953Z,100.00
2024-04-10T01:47:54.406Z,100.00
2024-04-10T01:50:21.799Z,100.00
2024-04-10T01:52:49.331Z,100.00
2024-04-10T01:55:16.580Z,100.00
2024-04-10T01:57:45.524Z,100.00
2024-04-10T02:00:13.324Z,100.00
2024-04-10T02:02:40.737Z,100.00
2024-04-10T02:05:08.238Z,100.00
2024-04-10T02:07:35.464Z,100.00
2024-04-10T02:10:02.622Z,100.00
2024-04-10T02:12:29.776Z,100.00
2024-04-10T02:14:57.033Z,100.00
2024-04-10T02:17:24.903Z,100.00
2024-04-10T02:19:52.704Z,100.00
2024-04-10T02:22:19.967Z,100.00
2024-04-10T02:24:47.568Z,100.00
2024-04-10T02:27:14.971Z,100.00
2024-04-10T02:29:42.200Z,100.00
2024-04-10T02:32:09.542Z,100.00
2024-04-10T02:34:38.002Z,100.00
2024-04-10T02:37:05.993Z,100.00
2024-04-10T02:39:33.353Z,100.00
2024-04-10T02:42:00.606Z,100.00
2024-04-10T02:44:28.148Z,100.00
2024-04-10T02:46:56.577Z,100.00
2024-04-10T02:49:23.781Z,100.00
2024-04-10T02:51:50.995Z,100.00
2024-04-10T02:54:18.197Z,100.00
2024-04-10T02:56:46.066Z,100.00
2024-04-10T02:59:13.315Z,100.00
2024-04-10T03:01:41.000Z,100.00
2024-04-10T03:04:08.684Z,100.00
2024-04-10T03:06:36.101Z,100.00
2024-04-10T03:09:03.342Z,100.00
2024-04-10T03:11:32.708Z,100.00
2024-04-10T03:14:00.052Z,100.00
2024-04-10T03:16:27.752Z,100.00
2024-04-10T03:18:55.350Z,100.00
2024-04-10T03:21:22.635Z,100.00
2024-04-10T03:23:50.451Z,100.00
2024-04-10T03:26:17.766Z,100.00
2024-04-10T03:28:44.954Z,100.00
2024-04-10T03:31:15.016Z,100.00
2024-04-10T03:33:42.423Z,100.00
2024-04-10T03:36:10.035Z,100.00
2024-04-10T03:38:37.520Z,100.00
2024-04-10T03:41:04.834Z,100.00
2024-04-10T03:43:32.210Z,100.00
2024-04-10T03:46:01.153Z,100.00
2024-04-10T03:48:29.207Z,100.00
2024-04-10T03:51:00.718Z,100.00
2024-04-10T03:53:29.323Z,100.00
2024-04-10T03:55:57.734Z,100.00
2024-04-10T03:58:25.387Z,100.00
2024-04-10T04:00:52.754Z,100.00
2024-04-10T04:03:26.113Z,100.00
2024-04-10T04:05:53.889Z,100.00
2024-04-10T04:08:24.210Z,100.00
2024-04-10T04:10:52.038Z,100.00
2024-04-10T04:13:19.406Z,100.00
2024-04-10T04:15:46.796Z,100.00
2024-04-10T04:18:14.000Z,100.00
2024-04-10T04:20:41.436Z,100.00
2024-04-10T04:23:08.810Z,100.00
2024-04-10T04:25:39.081Z,100.00
2024-04-10T04:28:06.718Z,100.00
2024-04-10T04:30:37.308Z,100.00
2024-04-10T04:33:05.495Z,100.00
2024-04-10T04:35:33.019Z,100.00
2024-04-10T04:38:00.980Z,100.00
2024-04-10T04:40:31.662Z,100.00
2024-04-10T04:43:16.954Z,100.00
2024-04-10T04:45:44.813Z,100.00
2024-04-10T04:48:16.067Z,100.00
2024-04-10T04:50:59.914Z,100.00
2024-04-10T04:53:27.763Z,100.00
2024-04-10T04:55:57.314Z,100.00
2024-04-10T04:58:28.082Z,100.00
2024-04-10T05:00:57.439Z,100.00
2024-04-10T05:03:43.454Z,100.00
2024-04-10T05:06:11.229Z,100.00
2024-04-10T05:08:38.680Z,99.73
2024-04-10T05:11:09.930Z,90.86
2024-04-10T05:13:37.879Z,79.06
2024-04-10T05:16:05.200Z,71.18
2024-04-10T05:18:32.495Z,65.14
2024-04-10T05:21:06.887Z,61.15
2024-04-10T05:23:42.661Z,57.45
2024-04-10T05:26:10.428Z,54.99
2024-04-10T05:28:37.860Z,51.82
2024-04-10T05:31:05.540Z,49.57
2024-04-10T05:33:32.949Z,46.79
2024-04-10T05:36:02.151Z,44.87
2024-04-10T05:38:33.201Z,43.46
2024-04-10T05:41:04.560Z,41.64
2024-04-10T05:43:31.870Z,41.35
2024-04-10T05:46:00.230Z,40.82
2024-04-10T05:48:27.991Z,39.86
2024-04-10T05:50:59.800Z,39.63
2024-04-10T05:53:27.339Z,38.39
2024-04-10T05:55:54.722Z,38.13
2024-04-10T05:58:23.508Z,36.89
2024-04-10T06:00:52.468Z,35.34
2024-04-10T06:03:21.814Z,34.08
2024-04-10T06:05:51.344Z,33.65
2024-04-10T06:08:19.264Z,32.59
2024-04-10T06:10:52.190Z,32.39
2024-04-10T06:13:19.445Z,32.68
2024-04-10T06:15:46.821Z,32.25
2024-04-10T06:18:14.356Z,31.22
2024-04-10T06:20:42.284Z,30.82
2024-04-10T06:23:09.611Z,30.42
2024-04-10T06:25:36.920Z,29.93
2024-04-10T06:28:04.958Z,29.92
2024-04-10T06:30:32.289Z,29.69
2024-04-10T06:32:59.698Z,29.50
2024-04-10T06:35:27.380Z,28.51
2024-04-10T06:38:01.000Z,28.26
2024-04-10T06:40:29.828Z,27.77
2024-04-10T06:42:57.921Z,27.97
2024-04-10T06:45:26.092Z,27.86
2024-04-10T06:47:53.693Z,27.23
2024-04-10T06:50:21.071Z,27.05
2024-04-10T06:52:48.615Z,27.49
2024-04-10T06:55:22.704Z,27.04
2024-04-10T06:57:54.688Z,27.05
2024-04-10T07:00:22.245Z,26.94
2024-04-10T07:02:49.656Z,26.80
2024-04-10T07:05:17.003Z,26.62
2024-04-10T07:07:44.298Z,26.07
2024-04-10T07:10:11.545Z,25.70
2024-04-10T07:12:39.341Z,25.79
2024-04-10T07:15:07.360Z,25.49
2024-04-10T07:17:34.710Z,25.53
2024-04-10T07:20:02.329Z,24.94
2024-04-10T07:22:29.613Z,24.64
2024-04-10T07:24:57.054Z,24.74
2024-04-10T07:27:24.317Z,24.35
2024-04-10T07:29:52.570Z,23.72
2024-04-10T07:32:19.857Z,23.70
2024-04-10T07:34:47.567Z,22.90
2024-04-10T07:37:14.821Z,22.66
2024-04-10T07:39:42.419Z,22.57
2024-04-10T07:42:10.449Z,22.62
2024-04-10T07:44:39.670Z,22.84
2024-04-10T07:47:08.176Z,22.74
2024-04-10T07:49:36.356Z,23.35
2024-04-10T07:52:03.760Z,22.90
2024-04-10T07:54:33.024Z,23.43
2024-04-10T07:57:00.677Z,22.83
2024-04-10T07:59:28.138Z,22.73
2024-04-10T08:01:55.439Z,23.18
2024-04-10T08:04:24.178Z,23.30
2024-04-10T08:06:51.488Z,23.44
2024-04-10T08:09:19.247Z,23.13
2024-04-10T08:11:47.027Z,23.25
2024-04-10T08:14:14.739Z,22.61
2024-04-10T08:16:42.494Z,22.55
2024-04-10T08:19:09.899Z,22.03
2024-04-10T08:21:38.555Z,22.31
2024-04-10T08:24:05.983Z,21.93
2024-04-10T08:26:35.221Z,22.70
2024-04-10T08:29:04.089Z,22.70
2024-04-10T08:31:31.775Z,22.50
2024-04-10T08:33:59.283Z,22.37
2024-04-10T08:36:28.989Z,22.52
2024-04-10T08:38:56.488Z,22.16
2024-04-10T08:41:24.177Z,22.28
2024-04-10T08:43:53.114Z,22.49
2024-04-10T08:46:24.424Z,22.12
2024-04-10T08:48:56.303Z,22.42
2024-04-10T08:51:25.019Z,22.66
2024-04-10T08:53:54.252Z,21.88
2024-04-10T08:56:21.574Z,21.49
2024-04-10T08:58:48.805Z,21.25
2024-04-10T09:01:34.664Z,21.47
2024-04-10T09:04:09.900Z,21.06
2024-04-10T09:06:37.680Z,20.89
2024-04-10T09:09:07.969Z,20.68
2024-04-10T09:11:35.566Z,20.82
2024-04-10T09:14:07.356Z,20.46
2024-04-10T09:16:36.118Z,20.71
2024-04-10T09:19:14.600Z,20.97
2024-04-10T09:21:43.253Z,20.79
2024-04-10T09:24:10.993Z,20.59
2024-04-10T09:26:39.443Z,19.88
2024-04-10T09:29:10.917Z,19.49
2024-04-10T09:31:39.384Z,19.77
2024-04-10T09:34:07.571Z,20.16
2024-04-10T09:36:35.527Z,20.06
2024-04-10T09:39:08.559Z,19.97
2024-04-10T09:41:36.291Z,20.51
2024-04-10T09:44:04.901Z,20.56
2024-04-10T09:46:36.439Z,20.41
2024-04-10T09:52:37.372Z,20.67
2024-04-10T09:55:04.901Z,20.40
2024-04-10T09:57:32.584Z,20.13
2024-04-10T10:00:02.992Z,20.32
2024-04-10T10:02:35.517Z,20.43
2024-04-10T10:05:02.944Z,19.78
2024-04-10T10:07:30.881Z,19.94
2024-04-10T10:10:08.956Z,20.47
2024-04-10T10:12:36.580Z,20.25
2024-04-10T10:15:11.342Z,20.30
2024-04-10T10:20:31.474Z,20.18
2024-04-10T10:23:02.501Z,19.98
2024-04-10T10:25:29.849Z,20.29
2024-04-10T10:28:07.862Z,20.42
2024-04-10T10:30:34.919Z,20.26
2024-04-10T10:33:04.579Z,20.64
2024-04-10T10:35:31.515Z,20.55
2024-04-10T10:37:58.797Z,20.58
2024-04-10T10:40:25.464Z,20.97
2024-04-10T10:43:05.728Z,21.00
2024-04-10T10:45:34.980Z,20.66
2024-04-10T10:48:05.237Z,20.62
2024-04-10T10:50:33.375Z,20.69
2024-04-10T10:53:01.553Z,20.89
2024-04-10T10:55:29.602Z,21.04
2024-04-10T10:58:15.391Z,20.68
2024-04-10T11:00:42.095Z,20.79
2024-04-10T11:03:16.951Z,20.94
2024-04-10T11:05:51.031Z,20.91
2024-04-10T11:08:24.688Z,20.80
2024-04-10T11:10:52.392Z,20.83
2024-04-10T11:13:19.471Z,20.94
2024-04-10T11:15:47.554Z,21.07
2024-04-10T11:18:19.937Z,21.08
2024-04-10T11:20:51.091Z,20.76
2024-04-10T11:23:27.926Z,20.81
2024-04-10T11:26:01.694Z,21.08
2024-04-10T11:28:28.817Z,20.68
2024-04-10T11:31:04.441Z,20.45
2024-04-10T11:33:46.756Z,20.67
2024-04-10T11:36:19.582Z,20.79
2024-04-10T11:38:49.042Z,20.68
2024-04-10T11:41:15.898Z,20.57
2024-04-10T11:43:42.773Z,20.71
2024-04-10T11:46:10.017Z,21.33
2024-04-10T11:48:39.993Z,21.47
2024-04-10T11:51:07.228Z,21.35
2024-04-10T11:53:34.149Z,21.15
2024-04-10T11:56:00.893Z,21.30
2024-04-10T11:58:27.533Z,21.22
2024-04-10T12:00:54.277Z,21.46
2024-04-10T12:03:22.204Z,21.99
2024-04-10T12:05:50.468Z,22.80
2024-04-10T12:08:19.508Z,23.08
2024-04-10T12:10:46.546Z,23.19
2024-04-10T12:13:13.206Z,23.29
2024-04-10T12:15:40.660Z,22.98
2024-04-10T12:18:07.579Z,23.29
2024-04-10T12:20:34.723Z,23.10
2024-04-10T12:23:01.433Z,23.80
2024-04-10T12:25:29.130Z,24.37
2024-04-10T12:27:55.803Z,24.83
2024-04-10T12:30:22.951Z,25.12
2024-04-10T12:32:49.738Z,24.86
2024-04-10T12:35:35.827Z,25.64
2024-04-10T12:38:06.620Z,25.70
2024-04-10T12:40:36.351Z,26.29
2024-04-10T12:43:03.988Z,26.12
2024-04-10T12:45:31.764Z,26.52
2024-04-10T12:47:58.946Z,26.95
2024-04-10T12:50:26.470Z,27.14
2024-04-10T12:52:53.542Z,26.55
2024-04-10T12:55:20.150Z,26.01
2024-04-10T12:57:47.838Z,26.32
2024-04-10T13:00:14.894Z,26.49
2024-04-10T13:02:44.251Z,26.53
2024-04-10T13:05:11.872Z,26.61
2024-04-10T13:07:38.664Z,26.56
2024-04-10T13:10:05.980Z,26.94
2024-04-10T13:12:33.443Z,27.56
2024-04-10T13:15:01.547Z,27.67
2024-04-10T13:17:32.009Z,27.96
2024-04-10T13:20:00.157Z,27.98
2024-04-10T13:22:27.226Z,27.90
2024-04-10T13:24:54.104Z,27.72
2024-04-10T13:27:21.269Z,27.66
2024-04-10T13:29:50.748Z,27.74
2024-04-10T13:32:17.512Z,28.13
2024-04-10T13:34:49.130Z,28.28
2024-04-10T13:37:26.126Z,28.76
2024-04-10T13:39:57.834Z,28.41
2024-04-10T13:42:24.587Z,28.29
2024-04-10T13:44:51.556Z,28.30
2024-04-10T13:47:18.506Z,28.33
2024-04-10T13:49:45.469Z,29.15
2024-04-10T13:52:12.330Z,29.27
2024-04-10T13:54:40.090Z,29.20
2024-04-10T13:57:06.735Z,29.12
2024-04-10T13:59:33.582Z,29.07
2024-04-10T14:02:00.808Z,29.48
2024-04-10T14:04:28.026Z,29.46
2024-04-10T14:06:54.899Z,29.44
2024-04-10T14:09:22.178Z,29.34
2024-04-10T14:11:49.407Z,29.30
2024-04-10T14:14:16.670Z,29.42
2024-04-10T14:16:48.233Z,29.64
2024-04-10T14:19:15.052Z,30.15
2024-04-10T14:21:41.954Z,30.10
2024-04-10T14:24:08.902Z,29.78
2024-04-10T14:26:36.294Z,29.77
2024-04-10T14:29:03.419Z,29.98
2024-04-10T14:31:30.158Z,30.20
2024-04-10T14:33:57.612Z,30.14
2024-04-10T14:37:00.561Z,30.22
2024-04-10T14:39:30.045Z,30.53
2024-04-10T14:41:57.759Z,30.29
2024-04-10T14:44:44.014Z,30.46
2024-04-10T14:47:22.742Z,30.81
2024-04-10T14:49:52.179Z,30.74
2024-04-10T14:52:18.897Z,30.86
2024-04-10T14:55:39.277Z,30.84
2024-04-10T14:58:12.774Z,30.73
2024-04-10T15:00:54.544Z,30.89
2024-04-10T15:06:52.856Z,31.23
2024-04-10T15:09:28.352Z,31.32
2024-04-10T15:11:59.616Z,31.47
2024-04-10T15:14:27.748Z,31.52
2024-04-10T15:17:04.690Z,31.34
2024-04-10T15:24:01.226Z,31.49
2024-04-10T15:26:49.986Z,31.65
2024-04-10T15:29:16.821Z,31.64
2024-04-10T15:31:44.146Z,31.49
2024-04-10T15:34:13.731Z,31.27
2024-04-10T15:36:40.593Z,31.35
2024-04-10T15:39:07.767Z,31.72
2024-04-10T15:41:34.934Z,31.94
2024-04-10T15:44:01.995Z,31.89
2024-04-10T15:46:28.782Z,31.91
2024-04-10T15:48:58.491Z,32.36
2024-04-10T15:51:26.428Z,32.25
2024-04-10T15:53:54.229Z,32.14
2024-04-10T15:56:20.978Z,32.35
2024-04-10T15:58:47.621Z,32.86
2024-04-10T16:01:14.904Z,33.66
2024-04-10T16:03:47.295Z,33.77
2024-04-10T16:06:16.747Z,33.77
2024-04-10T16:08:44.906Z,33.99
2024-04-10T16:11:18.503Z,34.52
2024-04-10T16:13:50.802Z,35.43
2024-04-10T16:16:19.298Z,36.11
2024-04-10T16:18:47.397Z,37.17
2024-04-10T16:21:15.537Z,38.64
2024-04-10T16:23:46.662Z,40.07
2024-04-10T16:26:15.245Z,40.82
2024-04-10T16:28:42.349Z,41.81
2024-04-10T16:31:13.193Z,42.54
2024-04-10T16:33:40.250Z,43.57
2024-04-10T16:36:11.262Z,45.63
2024-04-10T16:38:38.872Z,50.76
2024-04-10T16:41:05.517Z,54.51
2024-04-10T16:43:34.613Z,55.36
2024-04-10T16:46:06.417Z,55.65
2024-04-10T16:48:33.446Z,56.55
2024-04-10T16:51:08.279Z,59.18
2024-04-10T16:53:37.559Z,62.90
2024-04-10T16:56:06.909Z,66.31
2024-04-10T16:58:33.975Z,70.01
2024-04-10T17:01:06.018Z,73.52
2024-04-10T17:03:36.551Z,73.45
2024-04-10T17:06:04.988Z,73.56
2024-04-10T17:08:32.428Z,69.54
2024-04-10T17:10:59.379Z,68.94
2024-04-10T17:13:26.934Z,73.74
2024-04-10T17:15:54.145Z,77.12
2024-04-10T17:18:42.220Z,79.18
2024-04-10T17:21:27.667Z,84.21
2024-04-10T17:23:54.435Z,85.56
2024-04-10T17:26:24.290Z,87.51
2024-04-10T17:28:52.805Z,88.60
2024-04-10T17:31:25.965Z,91.56
2024-04-10T17:33:56.179Z,95.28
2024-04-10T17:36:25.305Z,99.19
2024-04-10T17:38:52.061Z,100.00
2024-04-10T17:41:19.248Z,100.00
2024-04-10T17:43:46.051Z,100.00
2024-04-10T17:46:12.753Z,100.00
2024-04-10T17:48:44.605Z,100.00
2024-04-10T17:51:17.395Z,100.00
2024-04-10T17:53:46.524Z,100.00
2024-04-10T17:56:20.130Z,100.00
2024-04-10T17:58:46.985Z,100.00
2024-04-10T18:01:13.800Z,100.00
2024-04-10T18:03:42.829Z,100.00
2024-04-10T18:06:11.976Z,100.00
2024-04-10T18:08:39.523Z,100.00
2024-04-10T18:11:06.725Z,100.00
2024-04-10T18:13:33.550Z,100.00
2024-04-10T18:16:00.778Z,100.00
2024-04-10T18:18:28.450Z,100.00
2024-04-10T18:21:00.104Z,100.00
2024-04-10T18:23:27.669Z,100.00
2024-04-10T18:26:04.924Z,100.00
2024-04-10T18:28:33.022Z,100.00
2024-04-10T18:31:01.268Z,100.00
2024-04-10T18:33:31.930Z,100.00
2024-04-10T18:36:04.186Z,100.00
2024-04-10T18:38:31.030Z,100.00
2024-04-10T18:40:59.311Z,100.00
2024-04-10T18:43:34.589Z,100.00
2024-04-10T18:46:05.561Z,100.00
2024-04-10T18:48:37.068Z,100.00
2024-04-10T18:51:10.648Z,100.00
2024-04-10T18:53:37.762Z,100.00
2024-04-10T18:56:04.670Z,100.00
2024-04-10T18:58:31.674Z,100.00
2024-04-10T19:00:59.645Z,100.00
2024-04-10T19:03:26.965Z,100.00
2024-04-10T19:05:57.258Z,100.00
2024-04-10T19:08:29.695Z,100.00
2024-04-10T19:10:57.273Z,100.00
2024-04-10T19:13:24.541Z,100.00
2024-04-10T19:15:51.948Z,100.00
2024-04-10T19:18:18.956Z,100.00
2024-04-10T19:20:49.443Z,100.00
2024-04-10T19:23:17.274Z,100.00
2024-04-10T19:25:54.770Z,100.00
2024-04-10T19:28:27.060Z,100.00
2024-04-10T19:30:54.927Z,100.00
2024-04-10T19:33:21.787Z,100.00
2024-04-10T19:35:49.022Z,100.00
2024-04-10T19:38:15.902Z,100.00
2024-04-10T19:40:43.746Z,100.00
2024-04-10T19:43:11.718Z,100.00
2024-04-10T19:45:39.689Z,100.00
2024-04-10T19:48:07.223Z,100.00
2024-04-10T19:50:34.920Z,100.00
2024-04-10T19:53:01.781Z,100.00
2024-04-10T19:55:28.711Z,100.00
2024-04-10T19:57:55.433Z,100.00
2024-04-10T20:00:22.408Z,100.00
2024-04-10T20:02:49.898Z,100.00
2024-04-10T20:05:18.300Z,100.00
2024-04-10T20:07:46.877Z,100.00
2024-04-10T20:10:14.309Z,100.00
2024-04-10T20:12:41.734Z,100.00
2024-04-10T20:15:08.635Z,100.00
2024-04-10T20:17:36.747Z,100.00
2024-04-10T20:20:03.903Z,100.00
2024-04-10T20:22:32.763Z,100.00
2024-04-10T20:25:03.412Z,100.00
2024-04-10T20:27:36.194Z,100.00
2024-04-10T20:30:03.799Z,100.00
2024-04-10T20:32:31.466Z,100.00
2024-04-10T20:34:58.674Z,100.00
2024-04-10T20:37:38.208Z,100.00
2024-04-10T20:40:05.597Z,100.00
2024-04-10T20:42:36.000Z,100.00
2024-04-10T20:45:03.610Z,100.00
2024-04-10T20:47:31.025Z,100.00
2024-04-10T20:49:58.567Z,100.00
2024-04-10T20:52:25.189Z,100.00
2024-04-10T20:54:53.295Z,100.00
2024-04-10T20:57:20.360Z,100.00
2024-04-10T20:59:48.417Z,100.00
2024-04-10T21:02:24.826Z,100.00
2024-04-10T21:04:51.498Z,100.00
2024-04-10T21:07:37.427Z,100.00
2024-04-10T21:10:22.952Z,100.00
2024-04-10T21:13:08.456Z,100.00
2024-04-10T21:15:57.724Z,100.00
2024-04-10T21:18:45.182Z,100.00
2024-04-10T21:21:30.972Z,100.00
2024-04-10T21:24:16.163Z,100.00
2024-04-10T21:27:04.883Z,100.00
2024-04-10T21:29:51.468Z,100.00
2024-04-10T21:32:37.529Z,100.00
2024-04-10T21:35:23.574Z,100.00
2024-04-10T21:38:08.809Z,100.00
2024-04-10T21:40:56.109Z,100.00
2024-04-10T21:43:41.656Z,100.00
2024-04-10T21:46:27.290Z,100.00
2024-04-10T21:49:12.735Z,100.00
2024-04-10T21:51:58.410Z,100.00
2024-04-10T21:54:43.791Z,100.00
2024-04-10T21:57:29.378Z,100.00
2024-04-10T22:00:27.451Z,100.00
2024-04-10T22:03:20.708Z,100.00
2024-04-10T22:06:06.178Z,100.00
2024-04-10T22:08:51.486Z,100.00
2024-04-10T22:11:18.367Z,100.00
2024-04-10T22:13:46.657Z,100.00
2024-04-10T22:16:13.640Z,100.00
2024-04-10T22:18:59.953Z,100.00
2024-04-10T22:21:46.366Z,100.00
2024-04-10T22:24:12.898Z,100.00
2024-04-10T22:26:39.768Z,100.00
2024-04-10T22:29:07.128Z,100.00
2024-04-10T22:31:34.613Z,100.00
2024-04-10T22:37:19.575Z,100.00
2024-04-10T22:39:46.687Z,100.00
2024-04-10T22:42:13.960Z,100.00
2024-04-10T22:44:41.506Z,100.00
2024-04-10T22:47:08.115Z,100.00
2024-04-10T22:49:34.652Z,100.00
2024-04-10T22:52:02.017Z,100.00
2024-04-10T22:54:29.289Z,100.00
2024-04-10T22:56:56.110Z,100.00
2024-04-10T22:59:23.526Z,100.00
2024-04-10T23:01:50.810Z,100.00
2024-04-10T23:04:17.387Z,100.00
2024-04-10T23:07:20.475Z,100.00
2024-04-10T23:09:32.235Z,100.00
2024-04-10T23:11:59.439Z,100.00
2024-04-10T23:14:26.113Z,100.00
2024-04-10T23:16:52.743Z,100.00
2024-04-10T23:19:21.286Z,100.00
2024-04-10T23:21:49.608Z,100.00
2024-04-10T23:24:16.042Z,100.00
2024-04-10T23:26:43.021Z,100.00
2024-04-10T23:29:10.471Z,100.00
2024-04-10T23:31:37.964Z,100.00
2024-04-10T23:34:04.719Z,100.00
2024-04-10T23:36:31.482Z,100.00
2024-04-10T23:38:58.013Z,100.00
2024-04-10T23:41:24.584Z,100.00
2024-04-10T23:43:51.472Z,100.00
2024-04-10T23:46:18.630Z,100.00
2024-04-10T23:48:45.650Z,100.00
2024-04-10T23:51:12.549Z,100.00
2024-04-10T23:53:39.182Z,100.00
2024-04-10T23:56:07.458Z,100.00
2024-04-10T23:58:37.608Z,100.00
